createdAt,value
2018-08-24T00:00:49.900Z,57.30
2018-08-24T00:01:54.012Z,57.30
2018-08-24T00:02:58.146Z,57.40
2018-08-24T00:04:09.618Z,57.40
2018-08-24T00:05:13.707Z,57.40
2018-08-24T00:06:17.856Z,57.30
2018-08-24T00:07:22.233Z,57.30
2018-08-24T00:08:26.335Z,56.70
2018-08-24T00:09:30.446Z,57.40
2018-08-24T00:10:34.557Z,57.40
2018-08-24T00:11:39.100Z,57.60
2018-08-24T00:12:43.212Z,57.70
2018-08-24T00:13:47.351Z,57.70
2018-08-24T00:14:51.461Z,57.80
2018-08-24T00:15:55.579Z,57.80
2018-08-24T00:16:59.697Z,57.80
2018-08-24T00:18:03.850Z,57.80
2018-08-24T00:19:10.341Z,57.90
2018-08-24T00:20:14.423Z,58.00
2018-08-24T00:21:18.530Z,58.00
2018-08-24T00:22:22.658Z,58.10
2018-08-24T00:23:26.838Z,58.10
2018-08-24T00:24:31.089Z,58.20
2018-08-24T00:25:35.223Z,58.20
2018-08-24T00:26:39.312Z,58.20
2018-08-24T00:27:43.417Z,58.20
2018-08-24T00:28:47.536Z,58.20
2018-08-24T00:29:51.648Z,58.30
2018-08-24T00:30:55.740Z,58.30
2018-08-24T00:31:59.861Z,58.20
2018-08-24T00:33:03.986Z,58.30
2018-08-24T00:34:08.065Z,58.30
2018-08-24T00:35:12.115Z,58.30
2018-08-24T00:36:16.201Z,58.40
2018-08-24T00:37:20.417Z,58.30
2018-08-24T00:38:24.545Z,58.30
2018-08-24T00:39:28.733Z,58.50
2018-08-24T00:40:32.853Z,58.70
2018-08-24T00:41:37.120Z,58.50
2018-08-24T00:42:41.203Z,58.40
2018-08-24T00:43:45.368Z,58.40
2018-08-24T00:44:49.409Z,58.30
2018-08-24T00:45:53.851Z,58.40
2018-08-24T00:46:57.957Z,58.50
2018-08-24T00:48:02.137Z,58.40
2018-08-24T00:49:06.276Z,58.40
2018-08-24T00:50:10.401Z,58.40
2018-08-24T00:51:14.468Z,58.50
2018-08-24T00:52:19.705Z,58.50
2018-08-24T00:53:23.832Z,58.40
2018-08-24T00:54:27.906Z,58.40
2018-08-24T00:55:31.946Z,58.50
2018-08-24T00:56:36.032Z,58.50
2018-08-24T00:57:40.170Z,58.50
2018-08-24T00:58:44.410Z,58.40
2018-08-24T00:59:48.503Z,58.40
2018-08-24T01:00:56.977Z,58.40
2018-08-24T01:02:01.366Z,58.40
2018-08-24T01:03:05.694Z,58.50
2018-08-24T01:04:09.825Z,58.50
2018-08-24T01:05:13.917Z,58.40
2018-08-24T01:06:23.052Z,58.30
2018-08-24T01:07:27.159Z,58.40
2018-08-24T01:08:31.288Z,58.40
2018-08-24T01:09:35.730Z,58.50
2018-08-24T01:10:39.805Z,58.40
2018-08-24T01:11:49.135Z,58.50
2018-08-24T01:12:53.609Z,58.40
2018-08-24T01:13:57.707Z,58.40
2018-08-24T01:15:06.066Z,58.40
2018-08-24T01:16:21.677Z,58.40
2018-08-24T01:17:37.208Z,58.40
2018-08-24T01:18:48.224Z,58.30
2018-08-24T01:19:58.349Z,58.30
2018-08-24T01:21:02.750Z,58.90
2018-08-24T01:22:06.852Z,58.20
2018-08-24T01:23:10.875Z,58.30
2018-08-24T01:24:15.019Z,58.40
2018-08-24T01:25:19.140Z,58.30
2018-08-24T01:26:24.262Z,58.90
2018-08-24T01:27:28.329Z,58.20
2018-08-24T01:28:32.605Z,58.20
2018-08-24T01:29:38.847Z,58.20
2018-08-24T01:30:42.928Z,58.20
2018-08-24T01:31:47.000Z,58.20
2018-08-24T01:32:51.131Z,58.30
2018-08-24T01:33:55.296Z,58.30
2018-08-24T01:34:59.479Z,58.30
2018-08-24T01:36:03.696Z,58.30
2018-08-24T01:37:07.898Z,58.30
2018-08-24T01:38:12.036Z,58.30
2018-08-24T01:39:16.143Z,58.30
2018-08-24T01:40:20.299Z,58.10
2018-08-24T01:41:24.355Z,58.10
2018-08-24T01:42:28.491Z,58.20
2018-08-24T01:43:32.595Z,58.20
2018-08-24T01:44:36.833Z,58.20
2018-08-24T01:45:41.014Z,58.20
2018-08-24T01:46:45.137Z,58.10
2018-08-24T01:47:49.216Z,58.20
2018-08-24T01:48:53.270Z,58.20
2018-08-24T01:49:57.417Z,58.20
2018-08-24T01:51:01.544Z,58.10
2018-08-24T01:52:05.681Z,58.20
2018-08-24T01:53:09.724Z,58.20
2018-08-24T01:54:14.046Z,58.20
2018-08-24T01:55:18.271Z,58.70
2018-08-24T01:56:22.376Z,58.20
2018-08-24T01:57:26.456Z,58.20
2018-08-24T01:58:30.519Z,58.30
2018-08-24T01:59:34.621Z,58.30
2018-08-24T02:00:38.761Z,58.30
2018-08-24T02:01:43.150Z,58.40
2018-08-24T02:02:47.330Z,58.40
2018-08-24T02:03:51.383Z,58.40
2018-08-24T02:04:55.883Z,58.40
2018-08-24T02:06:04.938Z,58.50
2018-08-24T02:07:09.107Z,58.50
2018-08-24T02:08:13.261Z,58.50
2018-08-24T02:09:21.652Z,58.50
2018-08-24T02:10:27.744Z,58.60
2018-08-24T02:11:31.938Z,58.70
2018-08-24T02:12:41.295Z,58.70
2018-08-24T02:13:50.882Z,58.60
2018-08-24T02:14:55.066Z,58.70
2018-08-24T02:15:59.183Z,59.40
2018-08-24T02:17:03.518Z,58.70
2018-08-24T02:18:12.972Z,58.80
2018-08-24T02:19:17.383Z,58.90
2018-08-24T02:20:26.962Z,58.80
2018-08-24T02:21:36.386Z,58.90
2018-08-24T02:22:40.526Z,58.90
2018-08-24T02:23:44.584Z,59.00
2018-08-24T02:24:48.697Z,59.00
2018-08-24T02:25:52.850Z,59.20
2018-08-24T02:26:56.980Z,59.30
2018-08-24T02:28:07.479Z,59.20
2018-08-24T02:29:11.613Z,59.40
2018-08-24T02:30:15.822Z,59.40
2018-08-24T02:31:19.906Z,59.50
2018-08-24T02:32:23.964Z,59.40
2018-08-24T02:33:29.323Z,59.40
2018-08-24T02:34:33.461Z,59.60
2018-08-24T02:35:37.528Z,59.50
2018-08-24T02:36:41.653Z,59.70
2018-08-24T02:37:46.311Z,59.80
2018-08-24T02:38:50.376Z,60.00
2018-08-24T02:39:54.420Z,59.90
2018-08-24T02:40:58.617Z,59.90
2018-08-24T02:42:02.707Z,60.00
2018-08-24T02:43:06.868Z,60.10
2018-08-24T02:44:11.242Z,60.20
2018-08-24T02:45:15.645Z,60.30
2018-08-24T02:46:19.723Z,60.50
2018-08-24T02:47:23.789Z,61.40
2018-08-24T02:48:27.870Z,60.70
2018-08-24T02:49:31.936Z,60.80
2018-08-24T02:50:36.017Z,60.70
2018-08-24T02:51:40.071Z,61.40
2018-08-24T02:52:44.119Z,61.30
2018-08-24T02:53:48.260Z,61.30
2018-08-24T02:54:52.302Z,61.30
2018-08-24T02:55:56.380Z,61.60
2018-08-24T02:57:00.425Z,61.70
2018-08-24T02:58:04.762Z,61.70
2018-08-24T02:59:08.841Z,61.70
2018-08-24T03:00:12.978Z,61.80
2018-08-24T03:01:17.063Z,61.90
2018-08-24T03:02:21.158Z,62.30
2018-08-24T03:03:25.187Z,62.20
2018-08-24T03:04:29.348Z,62.00
2018-08-24T03:05:33.791Z,62.10
2018-08-24T03:06:37.824Z,62.70
2018-08-24T03:07:41.978Z,62.40
2018-08-24T03:08:46.001Z,62.30
2018-08-24T03:09:50.074Z,62.20
2018-08-24T03:10:54.196Z,63.40
2018-08-24T03:11:58.319Z,62.40
2018-08-24T03:13:02.419Z,62.40
2018-08-24T03:14:06.824Z,63.00
2018-08-24T03:15:10.954Z,62.80
2018-08-24T03:16:15.109Z,62.70
2018-08-24T03:17:24.476Z,63.10
2018-08-24T03:18:28.560Z,63.00
2018-08-24T03:19:32.644Z,62.90
2018-08-24T03:20:36.757Z,63.10
2018-08-24T03:21:40.831Z,64.10
2018-08-24T03:22:44.942Z,63.30
2018-08-24T03:23:49.012Z,63.40
2018-08-24T03:24:53.080Z,63.30
2018-08-24T03:25:57.268Z,63.30
2018-08-24T03:27:01.400Z,63.90
2018-08-24T03:28:05.696Z,63.30
2018-08-24T03:29:09.864Z,63.40
2018-08-24T03:30:13.923Z,63.60
2018-08-24T03:31:18.058Z,63.80
2018-08-24T03:32:22.160Z,63.70
2018-08-24T03:33:26.296Z,63.80
2018-08-24T03:34:30.414Z,64.00
2018-08-24T03:35:34.541Z,64.10
2018-08-24T03:36:38.691Z,64.00
2018-08-24T03:37:42.744Z,63.90
2018-08-24T03:38:47.070Z,64.00
2018-08-24T03:39:51.195Z,64.00
2018-08-24T03:40:55.334Z,64.20
2018-08-24T03:41:59.428Z,64.10
2018-08-24T03:43:03.634Z,64.20
2018-08-24T03:44:07.746Z,64.10
2018-08-24T03:45:11.953Z,64.50
2018-08-24T03:46:22.703Z,64.40
2018-08-24T03:47:26.875Z,64.30
2018-08-24T03:48:30.991Z,64.30
2018-08-24T03:49:35.166Z,64.20
2018-08-24T03:50:39.269Z,64.20
2018-08-24T03:51:43.413Z,64.40
2018-08-24T03:52:47.525Z,64.40
2018-08-24T03:53:51.594Z,64.70
2018-08-24T03:54:55.750Z,64.70
2018-08-24T03:55:59.867Z,64.60
2018-08-24T03:57:04.031Z,64.60
2018-08-24T03:58:08.549Z,64.50
2018-08-24T03:59:12.683Z,64.70
2018-08-24T04:00:17.505Z,64.60
2018-08-24T04:01:21.650Z,64.80
2018-08-24T04:02:25.769Z,65.10
2018-08-24T04:03:30.347Z,64.80
2018-08-24T04:04:34.483Z,64.90
2018-08-24T04:05:38.647Z,65.70
2018-08-24T04:06:42.812Z,64.80
2018-08-24T04:07:46.956Z,65.10
2018-08-24T04:08:51.093Z,64.90
2018-08-24T04:09:55.135Z,65.80
2018-08-24T04:10:59.178Z,65.00
2018-08-24T04:12:03.341Z,66.00
2018-08-24T04:13:07.482Z,65.10
2018-08-24T04:14:11.985Z,65.10
2018-08-24T04:15:16.025Z,65.10
2018-08-24T04:16:20.122Z,65.30
2018-08-24T04:17:29.761Z,65.30
2018-08-24T04:18:33.868Z,65.40
2018-08-24T04:19:37.941Z,65.30
2018-08-24T04:20:41.957Z,65.50
2018-08-24T04:21:46.838Z,65.50
2018-08-24T04:22:50.983Z,66.30
2018-08-24T04:23:55.080Z,65.60
2018-08-24T04:24:59.190Z,65.80
2018-08-24T04:26:03.381Z,65.90
2018-08-24T04:27:07.409Z,66.00
2018-08-24T04:28:11.621Z,66.80
2018-08-24T04:29:15.843Z,66.80
2018-08-24T04:30:19.957Z,66.00
2018-08-24T04:31:24.044Z,66.00
2018-08-24T04:32:28.102Z,66.70
2018-08-24T04:33:32.238Z,66.20
2018-08-24T04:34:36.305Z,66.20
2018-08-24T04:35:40.410Z,66.30
2018-08-24T04:36:44.565Z,66.60
2018-08-24T04:37:48.605Z,66.30
2018-08-24T04:38:52.738Z,66.60
2018-08-24T04:39:56.829Z,66.40
2018-08-24T04:41:00.957Z,66.50
2018-08-24T04:42:05.281Z,66.40
2018-08-24T04:43:09.438Z,66.50
2018-08-24T04:44:13.834Z,66.80
2018-08-24T04:45:17.884Z,66.60
2018-08-24T04:46:21.972Z,66.60
2018-08-24T04:47:26.061Z,66.80
2018-08-24T04:48:30.178Z,66.80
2018-08-24T04:49:34.314Z,66.60
2018-08-24T04:50:38.456Z,66.80
2018-08-24T04:51:42.547Z,66.80
2018-08-24T04:52:46.677Z,66.80
2018-08-24T04:53:50.765Z,66.90
2018-08-24T04:54:54.877Z,66.80
2018-08-24T04:55:59.025Z,66.80
2018-08-24T04:57:03.155Z,66.70
2018-08-24T04:58:07.288Z,66.60
2018-08-24T04:59:11.332Z,66.60
2018-08-24T05:00:15.453Z,67.30
2018-08-24T05:01:19.531Z,66.70
2018-08-24T05:02:23.661Z,66.60
2018-08-24T05:03:27.871Z,66.60
2018-08-24T05:04:32.022Z,66.60
2018-08-24T05:05:36.193Z,66.70
2018-08-24T05:06:40.218Z,66.60
2018-08-24T05:07:44.399Z,66.60
2018-08-24T05:08:48.703Z,66.50
2018-08-24T05:09:52.820Z,66.50
2018-08-24T05:10:56.919Z,66.80
2018-08-24T05:12:00.993Z,66.70
2018-08-24T05:13:05.182Z,66.60
2018-08-24T05:14:10.044Z,66.80
2018-08-24T05:15:14.158Z,66.60
2018-08-24T05:16:18.221Z,66.60
2018-08-24T05:17:22.323Z,66.60
2018-08-24T05:18:26.424Z,66.60
2018-08-24T05:19:30.500Z,66.80
2018-08-24T05:20:34.556Z,66.70
2018-08-24T05:21:38.635Z,66.80
2018-08-24T05:22:42.684Z,66.80
2018-08-24T05:23:46.800Z,66.80
2018-08-24T05:24:51.097Z,66.80
2018-08-24T05:25:55.207Z,66.70
2018-08-24T05:26:59.404Z,66.70
2018-08-24T05:28:03.633Z,66.70
2018-08-24T05:29:07.682Z,66.70
2018-08-24T05:30:11.754Z,66.60
2018-08-24T05:31:15.923Z,66.60
2018-08-24T05:32:20.108Z,66.80
2018-08-24T05:33:24.151Z,66.80
2018-08-24T05:34:28.234Z,66.60
2018-08-24T05:35:32.357Z,66.60
2018-08-24T05:36:36.568Z,66.60
2018-08-24T05:37:40.743Z,66.50
2018-08-24T05:38:44.891Z,66.50
2018-08-24T05:39:48.914Z,66.40
2018-08-24T05:40:53.013Z,66.30
2018-08-24T05:41:57.179Z,66.20
2018-08-24T05:43:01.201Z,66.10
2018-08-24T05:44:05.324Z,66.10
2018-08-24T05:45:09.374Z,66.00
2018-08-24T05:46:13.478Z,65.90
2018-08-24T05:47:17.620Z,65.80
2018-08-24T05:48:21.784Z,65.70
2018-08-24T05:49:25.908Z,65.70
2018-08-24T05:50:30.113Z,65.70
2018-08-24T05:51:34.222Z,65.60
2018-08-24T05:52:38.314Z,65.50
2018-08-24T05:53:42.464Z,65.40
2018-08-24T05:54:46.561Z,65.40
2018-08-24T05:55:50.624Z,65.50
2018-08-24T05:56:54.863Z,65.40
2018-08-24T05:57:59.002Z,65.40
2018-08-24T05:59:03.099Z,65.30
2018-08-24T06:00:07.306Z,65.40
2018-08-24T06:01:11.450Z,65.40
2018-08-24T06:02:15.591Z,65.40
2018-08-24T06:03:19.671Z,65.30
2018-08-24T06:04:23.782Z,65.30
2018-08-24T06:05:27.891Z,65.40
2018-08-24T06:06:31.937Z,65.50
2018-08-24T06:07:36.186Z,65.40
2018-08-24T06:08:40.333Z,65.30
2018-08-24T06:09:44.486Z,65.30
2018-08-24T06:10:48.699Z,65.40
2018-08-24T06:11:52.834Z,65.30
2018-08-24T06:12:58.574Z,65.30
2018-08-24T06:14:02.704Z,65.40
2018-08-24T06:15:06.846Z,65.40
2018-08-24T06:16:10.932Z,65.40
2018-08-24T06:17:20.449Z,65.40
2018-08-24T06:18:24.708Z,65.40
2018-08-24T06:19:28.886Z,65.40
2018-08-24T06:20:32.996Z,65.40
2018-08-24T06:21:37.012Z,65.40
2018-08-24T06:22:41.200Z,65.40
2018-08-24T06:23:45.293Z,65.40
2018-08-24T06:24:49.376Z,65.40
2018-08-24T06:25:56.390Z,65.50
2018-08-24T06:27:00.553Z,65.50
2018-08-24T06:28:04.835Z,65.40
2018-08-24T06:29:09.017Z,65.40
2018-08-24T06:30:13.094Z,65.50
2018-08-24T06:31:17.226Z,65.40
2018-08-24T06:32:21.375Z,65.30
2018-08-24T06:33:25.479Z,65.30
2018-08-24T06:34:29.557Z,65.30
2018-08-24T06:35:33.606Z,65.40
2018-08-24T06:36:37.693Z,65.40
2018-08-24T06:37:41.955Z,65.30
2018-08-24T06:38:46.180Z,65.40
2018-08-24T06:39:50.375Z,65.50
2018-08-24T06:40:54.438Z,65.30
2018-08-24T06:41:58.609Z,65.20
2018-08-24T06:43:02.645Z,65.10
2018-08-24T06:44:06.944Z,64.90
2018-08-24T06:45:11.112Z,64.80
2018-08-24T06:46:15.184Z,64.60
2018-08-24T06:47:19.402Z,64.50
2018-08-24T06:48:23.365Z,64.40
2018-08-24T06:49:27.513Z,64.20
2018-08-24T06:50:31.576Z,64.20
2018-08-24T06:51:35.676Z,64.10
2018-08-24T06:52:39.772Z,64.00
2018-08-24T06:53:44.040Z,64.00
2018-08-24T06:54:48.158Z,63.90
2018-08-24T06:55:52.237Z,63.80
2018-08-24T06:56:56.483Z,63.80
2018-08-24T06:58:00.631Z,63.90
2018-08-24T06:59:04.806Z,63.80
2018-08-24T07:00:09.451Z,63.90
2018-08-24T07:01:13.532Z,63.80
2018-08-24T07:02:17.608Z,63.90
2018-08-24T07:03:21.710Z,63.80
2018-08-24T07:04:26.073Z,63.80
2018-08-24T07:05:30.675Z,63.80
2018-08-24T07:06:34.772Z,63.90
2018-08-24T07:07:38.901Z,63.90
2018-08-24T07:08:42.947Z,64.00
2018-08-24T07:09:47.326Z,64.00
2018-08-24T07:10:51.453Z,64.00
2018-08-24T07:11:55.547Z,64.30
2018-08-24T07:12:59.767Z,64.50
2018-08-24T07:14:03.887Z,64.60
2018-08-24T07:15:08.001Z,64.60
2018-08-24T07:16:12.090Z,64.80
2018-08-24T07:17:20.391Z,64.90
2018-08-24T07:18:24.455Z,65.10
2018-08-24T07:19:29.313Z,65.20
2018-08-24T07:20:33.613Z,65.20
2018-08-24T07:21:37.664Z,65.30
2018-08-24T07:22:41.777Z,65.50
2018-08-24T07:23:45.869Z,65.60
2018-08-24T07:24:49.986Z,65.70
2018-08-24T07:25:54.082Z,65.90
2018-08-24T07:26:58.273Z,65.90
2018-08-24T07:28:02.722Z,66.00
2018-08-24T07:29:06.822Z,66.00
2018-08-24T07:30:10.824Z,66.00
2018-08-24T07:31:15.027Z,66.20
2018-08-24T07:32:19.150Z,66.20
2018-08-24T07:33:23.469Z,66.20
2018-08-24T07:34:27.542Z,66.30
2018-08-24T07:35:31.688Z,66.30
2018-08-24T07:36:35.752Z,66.50
2018-08-24T07:37:39.877Z,66.50
2018-08-24T07:38:43.979Z,66.60
2018-08-24T07:39:48.124Z,66.60
2018-08-24T07:40:52.606Z,66.70
2018-08-24T07:41:56.813Z,66.80
2018-08-24T07:43:00.934Z,66.80
2018-08-24T07:44:05.337Z,66.80
2018-08-24T07:45:09.473Z,67.00
2018-08-24T07:46:13.775Z,67.00
2018-08-24T07:47:17.995Z,67.10
2018-08-24T07:48:22.130Z,67.00
2018-08-24T07:49:26.253Z,67.00
2018-08-24T07:50:30.356Z,67.00
2018-08-24T07:51:34.646Z,66.90
2018-08-24T07:52:38.780Z,66.80
2018-08-24T07:53:42.831Z,66.80
2018-08-24T07:54:47.345Z,66.80
2018-08-24T07:55:51.736Z,66.80
2018-08-24T07:56:55.990Z,66.60
2018-08-24T07:58:00.224Z,66.50
2018-08-24T07:59:04.469Z,66.40
2018-08-24T08:00:08.701Z,66.20
2018-08-24T08:01:12.831Z,66.00
2018-08-24T08:02:16.943Z,65.80
2018-08-24T08:03:21.084Z,65.60
2018-08-24T08:04:25.222Z,65.60
2018-08-24T08:05:29.378Z,65.40
2018-08-24T08:06:33.517Z,65.20
2018-08-24T08:07:37.686Z,65.10
2018-08-24T08:08:41.939Z,65.00
2018-08-24T08:09:46.250Z,65.00
2018-08-24T08:10:50.471Z,64.80
2018-08-24T08:11:54.605Z,64.70
2018-08-24T08:12:58.873Z,64.70
2018-08-24T08:14:03.216Z,64.70
2018-08-24T08:15:08.780Z,64.70
2018-08-24T08:16:13.088Z,64.80
2018-08-24T08:17:17.364Z,64.70
2018-08-24T08:18:21.539Z,64.70
2018-08-24T08:19:25.685Z,64.50
2018-08-24T08:20:29.752Z,64.40
2018-08-24T08:21:34.287Z,64.20
2018-08-24T08:22:38.576Z,64.10
2018-08-24T08:23:42.804Z,64.10
2018-08-24T08:24:47.117Z,64.00
2018-08-24T08:25:51.194Z,63.90
2018-08-24T08:26:55.309Z,63.70
2018-08-24T08:27:59.444Z,63.70
2018-08-24T08:29:03.972Z,63.60
2018-08-24T08:30:08.061Z,64.30
2018-08-24T08:31:12.173Z,63.40
2018-08-24T08:32:16.234Z,63.40
2018-08-24T08:33:20.350Z,63.40
2018-08-24T08:34:24.452Z,63.20
2018-08-24T08:35:28.629Z,63.40
2018-08-24T08:36:32.762Z,63.30
2018-08-24T08:37:36.950Z,63.00
2018-08-24T08:38:41.073Z,62.60
2018-08-24T08:39:45.322Z,62.40
2018-08-24T08:40:49.497Z,62.40
2018-08-24T08:41:53.676Z,62.20
2018-08-24T08:42:58.834Z,61.90
2018-08-24T08:44:03.842Z,61.90
2018-08-24T08:45:08.013Z,61.60
2018-08-24T08:46:12.201Z,61.50
2018-08-24T08:47:16.423Z,61.30
2018-08-24T08:48:20.472Z,61.20
2018-08-24T08:49:24.574Z,61.30
2018-08-24T08:50:28.748Z,61.30
2018-08-24T08:51:32.942Z,61.30
2018-08-24T08:52:37.072Z,61.20
2018-08-24T08:53:41.171Z,60.90
2018-08-24T08:54:45.267Z,60.70
2018-08-24T08:55:49.479Z,60.60
2018-08-24T08:56:53.534Z,60.30
2018-08-24T08:57:57.610Z,59.90
2018-08-24T08:59:01.709Z,59.80
2018-08-24T09:00:06.074Z,59.80
2018-08-24T09:01:10.135Z,59.60
2018-08-24T09:02:14.254Z,59.60
2018-08-24T09:03:18.374Z,59.60
2018-08-24T09:04:22.555Z,59.70
2018-08-24T09:05:26.610Z,59.70
2018-08-24T09:06:30.814Z,59.70
2018-08-24T09:07:34.868Z,59.70
2018-08-24T09:08:39.023Z,59.70
2018-08-24T09:09:43.157Z,59.90
2018-08-24T09:10:47.237Z,60.40
2018-08-24T09:11:51.282Z,59.90
2018-08-24T09:12:55.481Z,59.50
2018-08-24T09:13:59.538Z,59.80
2018-08-24T09:15:03.710Z,59.80
2018-08-24T09:16:07.891Z,59.70
2018-08-24T09:17:17.333Z,59.80
2018-08-24T09:18:27.000Z,59.90
2018-08-24T09:19:36.453Z,59.90
2018-08-24T09:20:46.096Z,59.80
2018-08-24T09:21:55.634Z,60.00
2018-08-24T09:23:05.175Z,59.90
2018-08-24T09:24:14.793Z,60.00
2018-08-24T09:25:25.171Z,60.00
2018-08-24T09:26:34.868Z,59.90
2018-08-24T09:27:47.059Z,59.90
2018-08-24T09:28:52.459Z,59.90
2018-08-24T09:29:59.014Z,59.90
2018-08-24T09:31:08.210Z,60.00
2018-08-24T09:32:12.274Z,60.10
2018-08-24T09:33:16.504Z,60.10
2018-08-24T09:34:20.830Z,60.20
2018-08-24T09:35:24.973Z,60.20
2018-08-24T09:36:29.140Z,60.40
2018-08-24T09:37:35.989Z,60.40
2018-08-24T09:38:40.050Z,60.40
2018-08-24T09:39:44.159Z,60.40
2018-08-24T09:40:53.752Z,60.40
2018-08-24T09:41:59.478Z,61.00
2018-08-24T09:43:08.975Z,60.60
2018-08-24T09:44:12.926Z,60.60
2018-08-24T09:45:17.091Z,61.00
2018-08-24T09:46:25.500Z,61.00
2018-08-24T09:47:35.009Z,61.20
2018-08-24T09:48:44.489Z,61.50
2018-08-24T09:49:48.792Z,61.70
2018-08-24T09:50:58.264Z,61.90
2018-08-24T09:52:06.606Z,61.90
2018-08-24T09:53:16.126Z,61.90
2018-08-24T09:54:20.189Z,62.10
2018-08-24T09:55:27.406Z,61.90
2018-08-24T09:56:32.520Z,61.90
2018-08-24T09:57:36.625Z,61.90
2018-08-24T09:58:40.703Z,61.90
2018-08-24T09:59:44.891Z,62.60
2018-08-24T10:00:54.363Z,63.20
2018-08-24T10:02:03.797Z,63.10
2018-08-24T10:03:13.316Z,63.40
2018-08-24T10:04:22.873Z,63.20
2018-08-24T10:05:32.538Z,63.30
2018-08-24T10:06:42.095Z,63.20
2018-08-24T10:07:51.584Z,63.40
2018-08-24T10:08:55.807Z,63.80
2018-08-24T10:10:00.464Z,64.00
2018-08-24T10:11:04.613Z,63.90
2018-08-24T10:12:08.753Z,63.90
2018-08-24T10:13:12.907Z,64.10
2018-08-24T10:14:17.042Z,64.40
2018-08-24T10:15:21.145Z,64.30
2018-08-24T10:16:25.185Z,64.80
2018-08-24T10:17:29.295Z,64.80
2018-08-24T10:18:33.422Z,65.10
2018-08-24T10:19:37.561Z,65.20
2018-08-24T10:20:41.675Z,65.20
2018-08-24T10:21:45.759Z,65.50
2018-08-24T10:22:49.868Z,65.70
2018-08-24T10:23:54.028Z,65.80
2018-08-24T10:24:58.134Z,66.00
2018-08-24T10:26:02.537Z,66.00
2018-08-24T10:27:06.584Z,66.30
2018-08-24T10:28:10.675Z,66.30
2018-08-24T10:29:14.875Z,66.30
2018-08-24T10:30:18.964Z,66.50
2018-08-24T10:31:23.056Z,66.70
2018-08-24T10:32:27.189Z,66.60
2018-08-24T10:33:31.364Z,66.70
2018-08-24T10:34:35.500Z,66.90
2018-08-24T10:35:39.608Z,67.00
2018-08-24T10:36:43.753Z,67.10
2018-08-24T10:37:47.790Z,67.30
2018-08-24T10:38:51.996Z,67.30
2018-08-24T10:39:56.157Z,67.30
2018-08-24T10:41:00.399Z,67.50
2018-08-24T10:42:04.424Z,67.60
2018-08-24T10:43:08.604Z,67.80
2018-08-24T10:44:12.859Z,67.80
2018-08-24T10:45:16.928Z,68.10
2018-08-24T10:46:21.010Z,68.10
2018-08-24T10:47:25.235Z,68.20
2018-08-24T10:48:29.281Z,68.40
2018-08-24T10:49:33.468Z,68.50
2018-08-24T10:50:37.450Z,68.50
2018-08-24T10:51:41.601Z,68.60
2018-08-24T10:52:45.816Z,68.60
2018-08-24T10:53:49.915Z,69.40
2018-08-24T10:54:54.051Z,68.50
2018-08-24T10:55:58.213Z,69.40
2018-08-24T10:57:02.270Z,68.50
2018-08-24T10:58:06.361Z,68.50
2018-08-24T10:59:10.445Z,68.50
2018-08-24T11:00:14.552Z,68.70
2018-08-24T11:01:18.710Z,68.60
2018-08-24T11:02:22.795Z,68.50
2018-08-24T11:03:26.932Z,68.80
2018-08-24T11:04:31.045Z,69.30
2018-08-24T11:05:41.680Z,69.80
2018-08-24T11:06:45.761Z,70.00
2018-08-24T11:07:50.019Z,70.20
2018-08-24T11:08:54.004Z,70.40
2018-08-24T11:09:59.983Z,70.60
2018-08-24T11:11:04.022Z,70.50
2018-08-24T11:12:08.175Z,70.90
2018-08-24T11:13:12.274Z,71.30
2018-08-24T11:14:16.368Z,71.60
2018-08-24T11:15:20.421Z,71.50
2018-08-24T11:16:24.565Z,71.80
2018-08-24T11:17:36.831Z,71.90
2018-08-24T11:18:40.900Z,71.90
2018-08-24T11:19:44.924Z,72.00
2018-08-24T11:20:49.029Z,72.90
2018-08-24T11:21:53.513Z,72.60
2018-08-24T11:22:57.665Z,74.00
2018-08-24T11:24:01.661Z,73.30
2018-08-24T11:25:05.943Z,74.30
2018-08-24T11:26:10.068Z,74.10
2018-08-24T11:27:14.095Z,74.30
2018-08-24T11:28:18.152Z,74.50
2018-08-24T11:29:22.300Z,74.30
2018-08-24T11:30:26.386Z,74.70
2018-08-24T11:31:30.512Z,74.60
2018-08-24T11:32:34.584Z,75.00
2018-08-24T11:33:38.679Z,75.00
2018-08-24T11:34:42.783Z,75.00
2018-08-24T11:35:46.999Z,75.10
2018-08-24T11:36:51.044Z,75.60
2018-08-24T11:37:55.149Z,75.70
2018-08-24T11:38:59.285Z,75.90
2018-08-24T11:40:03.525Z,75.80
2018-08-24T11:41:07.527Z,75.70
2018-08-24T11:42:11.714Z,76.10
2018-08-24T11:43:15.772Z,76.10
2018-08-24T11:44:19.865Z,76.10
2018-08-24T11:45:23.992Z,76.20
2018-08-24T11:46:28.142Z,76.40
2018-08-24T11:47:32.251Z,76.40
2018-08-24T11:48:36.332Z,76.20
2018-08-24T11:49:40.417Z,76.20
2018-08-24T11:50:44.553Z,76.30
2018-08-24T11:51:48.632Z,76.60
2018-08-24T11:52:52.717Z,76.30
2018-08-24T11:53:56.939Z,76.30
2018-08-24T11:55:00.970Z,76.70
2018-08-24T11:56:05.295Z,76.80
2018-08-24T11:57:09.612Z,76.90
2018-08-24T11:58:13.689Z,77.00
2018-08-24T11:59:17.731Z,77.00
2018-08-24T12:00:27.225Z,76.80
2018-08-24T12:01:31.319Z,77.50
2018-08-24T12:02:35.444Z,76.60
2018-08-24T12:03:39.548Z,76.60
2018-08-24T12:04:43.611Z,76.30
2018-08-24T12:05:47.760Z,76.00
2018-08-24T12:06:51.848Z,76.10
2018-08-24T12:07:56.316Z,76.00
2018-08-24T12:09:00.392Z,75.70
2018-08-24T12:10:04.501Z,75.80
2018-08-24T12:11:08.534Z,75.90
2018-08-24T12:12:12.620Z,75.70
2018-08-24T12:13:16.790Z,75.40
2018-08-24T12:14:21.051Z,76.30
2018-08-24T12:15:25.128Z,75.30
2018-08-24T12:16:29.231Z,75.30
2018-08-24T12:17:36.479Z,75.10
2018-08-24T12:18:40.891Z,75.30
2018-08-24T12:19:45.419Z,75.30
2018-08-24T12:20:49.859Z,75.50
2018-08-24T12:21:54.815Z,75.60
2018-08-24T12:22:59.801Z,75.50
2018-08-24T12:24:04.627Z,75.50
2018-08-24T12:25:09.264Z,75.50
2018-08-24T12:26:13.322Z,75.30
2018-08-24T12:27:17.584Z,75.30
2018-08-24T12:28:28.275Z,74.90
2018-08-24T12:29:32.441Z,74.40
2018-08-24T12:30:36.676Z,74.10
2018-08-24T12:31:40.866Z,74.00
2018-08-24T12:32:45.026Z,73.90
2018-08-24T12:33:49.143Z,73.60
2018-08-24T12:34:53.292Z,73.30
2018-08-24T12:35:57.304Z,73.30
2018-08-24T12:37:01.497Z,73.20
2018-08-24T12:38:06.061Z,73.00
2018-08-24T12:39:11.259Z,72.70
2018-08-24T12:40:16.080Z,72.40
2018-08-24T12:41:20.187Z,72.40
2018-08-24T12:42:24.489Z,71.50
2018-08-24T12:43:28.682Z,70.60
2018-08-24T12:44:32.763Z,70.50
2018-08-24T12:45:36.878Z,70.10
2018-08-24T12:46:41.567Z,69.70
2018-08-24T12:47:45.857Z,69.60
2018-08-24T12:48:50.103Z,69.50
2018-08-24T12:49:54.149Z,69.30
2018-08-24T12:50:58.205Z,69.00
2018-08-24T12:52:02.682Z,68.70
2018-08-24T12:53:06.782Z,68.80
2018-08-24T12:54:10.866Z,68.60
2018-08-24T12:55:14.996Z,68.20
2018-08-24T12:56:19.577Z,68.20
2018-08-24T12:57:27.450Z,68.10
2018-08-24T12:58:31.633Z,67.60
2018-08-24T12:59:35.919Z,67.50
2018-08-24T13:00:40.084Z,67.10
2018-08-24T13:01:44.273Z,67.10
2018-08-24T13:02:48.444Z,66.80
2018-08-24T13:03:52.538Z,67.30
2018-08-24T13:04:56.894Z,66.60
2018-08-24T13:06:01.008Z,66.60
2018-08-24T13:07:05.410Z,66.40
2018-08-24T13:08:09.688Z,66.10
2018-08-24T13:09:13.842Z,65.60
2018-08-24T13:10:18.009Z,65.10
2018-08-24T13:11:22.094Z,64.70
2018-08-24T13:12:26.206Z,64.40
2018-08-24T13:13:30.354Z,64.10
2018-08-24T13:14:34.484Z,63.90
2018-08-24T13:15:38.556Z,63.80
2018-08-24T13:16:42.686Z,63.80
2018-08-24T13:17:46.835Z,63.80
2018-08-24T13:18:50.869Z,63.70
2018-08-24T13:19:55.814Z,63.70
2018-08-24T13:20:59.898Z,63.70
2018-08-24T13:22:04.034Z,64.00
2018-08-24T13:23:08.204Z,63.90
2018-08-24T13:24:12.216Z,63.50
2018-08-24T13:25:16.293Z,63.60
2018-08-24T13:26:20.456Z,62.90
2018-08-24T13:27:24.606Z,62.90
2018-08-24T13:28:28.717Z,62.80
2018-08-24T13:29:32.803Z,62.90
2018-08-24T13:30:36.918Z,62.80
2018-08-24T13:31:41.098Z,62.40
2018-08-24T13:32:45.295Z,62.40
2018-08-24T13:33:49.697Z,62.20
2018-08-24T13:34:53.869Z,62.30
2018-08-24T13:35:58.169Z,62.10
2018-08-24T13:37:02.260Z,62.00
2018-08-24T13:38:06.655Z,62.00
2018-08-24T13:39:10.801Z,62.10
2018-08-24T13:40:14.982Z,61.80
2018-08-24T13:41:19.156Z,61.60
2018-08-24T13:42:23.268Z,61.70
2018-08-24T13:43:27.353Z,61.30
2018-08-24T13:44:31.468Z,61.20
2018-08-24T13:45:35.636Z,60.80
2018-08-24T13:46:39.810Z,60.50
2018-08-24T13:47:44.100Z,60.40
2018-08-24T13:48:48.935Z,60.80
2018-08-24T13:49:53.080Z,59.80
2018-08-24T13:50:57.257Z,59.80
2018-08-24T13:52:01.477Z,59.70